Time;durP1;ratioP1;P1;durP2;ratioP2;P2;SDS_P1;SDS_P2;PMS_P1;PMS_P2;Temp;Humidity;BMP_temperature;BMP_pressure;BME280_temperature;BME280_humidity;BME280_pressure;Samples;Min_cycle;Max_cycle;Signal;HPM_P1;HPM_P2
2022/03/06 00:01:26;;;;;;;19.48;11.30;;;;;;;;;;5047359;28;20024;-50
2022/03/06 00:03:53;;;;;;;18.00;11.68;;;;;;;;;;5042504;28;20017;-54
2022/03/06 00:06:19;;;;;;;17.38;10.45;;;;;;;;;;5047402;28;20037;-55
2022/03/06 00:08:46;;;;;;;14.95;10.13;;;;;;;;;;5046949;28;20112;-53
2022/03/06 00:11:13;;;;;;;18.77;10.18;;;;;;;;;;5047292;28;20031;-52
2022/03/06 00:13:39;;;;;;;17.92;10.20;;;;;;;;;;5047287;28;20025;-54
2022/03/06 00:16:05;;;;;;;17.90;10.77;;;;;;;;;;5046607;28;20439;-53
2022/03/06 00:18:31;;;;;;;19.77;11.07;;;;;;;;;;5047234;28;20112;-54
2022/03/06 00:20:59;;;;;;;13.70;9.52;;;;;;;;;;5047690;28;20677;-56
2022/03/06 00:23:25;;;;;;;18.98;10.73;;;;;;;;;;5046520;28;20021;-54
2022/03/06 00:25:51;;;;;;;15.23;10.30;;;;;;;;;;5047458;28;20033;-55
2022/03/06 00:28:17;;;;;;;14.52;9.65;;;;;;;;;;5047076;28;20486;-55
2022/03/06 00:30:44;;;;;;;16.48;10.07;;;;;;;;;;5048117;28;20069;-56
2022/03/06 00:33:11;;;;;;;15.15;9.38;;;;;;;;;;5047261;28;20525;-56
2022/03/06 00:35:37;;;;;;;16.48;9.82;;;;;;;;;;5051169;28;20032;-52
2022/03/06 00:38:03;;;;;;;16.60;9.90;;;;;;;;;;5050249;28;20037;-54
2022/03/06 00:40:29;;;;;;;15.00;10.10;;;;;;;;;;5051312;28;20624;-54
2022/03/06 00:42:55;;;;;;;14.93;9.27;;;;;;;;;;5050798;28;20108;-53
2022/03/06 00:45:21;;;;;;;16.98;9.43;;;;;;;;;;5049122;28;20025;-55
2022/03/06 00:47:47;;;;;;;16.95;9.68;;;;;;;;;;5040769;28;20113;-54
2022/03/06 00:50:14;;;;;;;14.43;9.25;;;;;;;;;;5050303;28;20128;-56
2022/03/06 00:52:40;;;;;;;14.45;8.90;;;;;;;;;;5050468;28;20375;-55
2022/03/06 00:55:06;;;;;;;14.57;8.88;;;;;;;;;;5050789;28;20048;-54
2022/03/06 00:57:32;;;;;;;15.90;9.40;;;;;;;;;;5038185;28;20048;-48
2022/03/06 00:59:59;;;;;;;13.50;8.30;;;;;;;;;;5050114;28;20052;-52
2022/03/06 01:02:25;;;;;;;14.60;8.70;;;;;;;;;;5050427;28;20171;-55
2022/03/06 01:04:51;;;;;;;14.63;8.45;;;;;;;;;;5050264;28;20060;-56
2022/03/06 01:07:17;;;;;;;14.02;8.50;;;;;;;;;;5050435;28;20025;-54
2022/03/06 01:09:43;;;;;;;14.70;9.07;;;;;;;;;;5050428;28;20554;-53
2022/03/06 01:12:09;;;;;;;16.13;8.82;;;;;;;;;;5035099;28;20038;-53
2022/03/06 01:14:35;;;;;;;14.82;9.30;;;;;;;;;;5046246;28;20052;-56
2022/03/06 01:17:01;;;;;;;14.20;8.40;;;;;;;;;;5036098;28;20034;-54
2022/03/06 01:19:27;;;;;;;14.45;8.98;;;;;;;;;;5043748;28;20441;-55
2022/03/06 01:21:53;;;;;;;13.27;8.65;;;;;;;;;;5049851;28;20453;-56
2022/03/06 01:24:19;;;;;;;13.60;8.55;;;;;;;;;;5050010;28;20100;-56
2022/03/06 01:26:45;;;;;;;14.50;9.35;;;;;;;;;;5050421;28;20594;-54
2022/03/06 01:29:11;;;;;;;12.27;7.72;;;;;;;;;;5049770;28;20050;-57
2022/03/06 01:31:37;;;;;;;13.70;8.75;;;;;;;;;;5049368;28;20033;-56
2022/03/06 01:34:04;;;;;;;13.77;9.18;;;;;;;;;;5050077;28;20025;-54
2022/03/06 01:36:31;;;;;;;15.52;8.80;;;;;;;;;;5049562;28;20028;-56
2022/03/06 01:38:57;;;;;;;13.13;8.18;;;;;;;;;;5050030;28;20029;-57
2022/03/06 01:41:24;;;;;;;12.60;8.18;;;;;;;;;;5038041;28;20043;-54
2022/03/06 01:43:50;;;;;;;15.05;9.02;;;;;;;;;;5049238;28;20423;-53
2022/03/06 01:46:16;;;;;;;15.35;9.18;;;;;;;;;;5049446;28;20376;-57
2022/03/06 01:48:42;;;;;;;13.93;8.32;;;;;;;;;;5049730;28;20029;-55
2022/03/06 01:51:08;;;;;;;15.13;8.63;;;;;;;;;;5049260;28;20120;-55
2022/03/06 01:53:34;;;;;;;12.98;8.10;;;;;;;;;;5049762;28;20211;-54
2022/03/06 01:56:00;;;;;;;14.02;9.07;;;;;;;;;;5049208;28;20017;-49
2022/03/06 01:58:26;;;;;;;12.90;8.10;;;;;;;;;;5049223;28;20061;-55
2022/03/06 02:00:52;;;;;;;11.20;7.35;;;;;;;;;;5049171;28;20057;-50
2022/03/06 02:03:18;;;;;;;11.32;7.60;;;;;;;;;;5049762;28;20049;-52
2022/03/06 02:05:44;;;;;;;12.70;7.97;;;;;;;;;;5048160;28;20124;-52
2022/03/06 02:08:11;;;;;;;11.60;7.93;;;;;;;;;;5049049;28;20443;-55
2022/03/06 02:10:37;;;;;;;12.20;7.68;;;;;;;;;;5043248;28;20127;-56
2022/03/06 02:13:03;;;;;;;12.40;7.72;;;;;;;;;;5049321;28;20017;-55
2022/03/06 02:15:30;;;;;;;11.68;7.13;;;;;;;;;;5049199;28;20406;-54
2022/03/06 02:17:56;;;;;;;11.90;7.57;;;;;;;;;;5049258;28;20083;-53
2022/03/06 02:20:24;;;;;;;11.57;7.22;;;;;;;;;;5048655;28;20453;-56
2022/03/06 02:22:51;;;;;;;12.15;7.90;;;;;;;;;;5049297;28;20036;-55
2022/03/06 02:25:17;;;;;;;13.48;8.07;;;;;;;;;;5040178;28;20063;-54
2022/03/06 02:27:43;;;;;;;11.88;8.07;;;;;;;;;;5049026;28;20029;-52
2022/03/06 02:30:11;;;;;;;14.65;8.25;;;;;;;;;;5048938;28;20041;-54
2022/03/06 02:32:38;;;;;;;11.70;7.63;;;;;;;;;;5049123;28;20163;-56
2022/03/06 02:35:04;;;;;;;12.93;7.82;;;;;;;;;;5048880;28;20162;-57
2022/03/06 02:37:30;;;;;;;12.77;7.97;;;;;;;;;;5048874;28;20132;-52
2022/03/06 02:39:59;;;;;;;10.90;6.90;;;;;;;;;;5039013;28;20445;-53
2022/03/06 02:42:25;;;;;;;12.23;7.47;;;;;;;;;;5044142;28;20120;-58
2022/03/06 02:44:51;;;;;;;14.80;7.90;;;;;;;;;;5048563;28;20029;-55
2022/03/06 02:47:17;;;;;;;11.93;7.57;;;;;;;;;;5048247;28;20029;-52
2022/03/06 02:49:43;;;;;;;9.85;6.53;;;;;;;;;;5047783;28;20048;-57
2022/03/06 02:52:09;;;;;;;12.60;7.72;;;;;;;;;;5046999;28;20044;-56
2022/03/06 02:54:36;;;;;;;10.90;6.85;;;;;;;;;;5047995;28;20025;-55
2022/03/06 02:57:03;;;;;;;11.88;7.55;;;;;;;;;;5048460;28;20059;-54
2022/03/06 02:59:29;;;;;;;12.10;7.00;;;;;;;;;;5048438;28;20035;-55
2022/03/06 03:01:55;;;;;;;12.75;7.78;;;;;;;;;;5048296;28;20063;-56
2022/03/06 03:04:23;;;;;;;11.73;7.50;;;;;;;;;;5048361;28;20099;-56
2022/03/06 03:06:50;;;;;;;11.57;7.53;;;;;;;;;;5047333;28;20120;-57
2022/03/06 03:09:19;;;;;;;10.27;7.07;;;;;;;;;;5047895;28;20159;-57
2022/03/06 03:11:46;;;;;;;10.73;7.13;;;;;;;;;;5047830;28;20044;-54
2022/03/06 03:14:13;;;;;;;12.68;7.53;;;;;;;;;;5048212;28;20021;-55
2022/03/06 03:16:39;;;;;;;11.75;8.13;;;;;;;;;;5047695;28;20116;-55
2022/03/06 03:19:05;;;;;;;11.30;7.60;;;;;;;;;;5047639;28;20025;-58
2022/03/06 03:21:31;;;;;;;13.60;8.05;;;;;;;;;;5048171;28;20124;-53
2022/03/06 03:23:57;;;;;;;10.88;6.55;;;;;;;;;;5048016;28;20029;-54
2022/03/06 03:26:23;;;;;;;10.90;7.38;;;;;;;;;;5048045;28;20371;-56
2022/03/06 03:28:49;;;;;;;11.18;7.05;;;;;;;;;;5047753;28;20144;-54
2022/03/06 03:31:15;;;;;;;9.43;6.32;;;;;;;;;;5047732;28;20457;-56
2022/03/06 03:33:41;;;;;;;10.63;7.03;;;;;;;;;;5045041;28;20040;-57
2022/03/06 03:36:07;;;;;;;10.32;6.95;;;;;;;;;;5048156;28;20204;-57
2022/03/06 03:38:33;;;;;;;9.52;6.28;;;;;;;;;;5047448;28;20368;-55
2022/03/06 03:41:01;;;;;;;11.57;7.05;;;;;;;;;;5047378;28;20463;-55
2022/03/06 03:43:27;;;;;;;11.43;6.53;;;;;;;;;;5047259;28;20035;-55
2022/03/06 03:45:53;;;;;;;11.25;7.03;;;;;;;;;;5047823;28;20113;-56
2022/03/06 03:48:19;;;;;;;10.15;6.45;;;;;;;;;;5046712;28;20036;-54
2022/03/06 03:50:45;;;;;;;10.40;7.10;;;;;;;;;;5047523;28;20123;-55
2022/03/06 03:53:11;;;;;;;12.32;7.60;;;;;;;;;;5046406;28;20112;-54
2022/03/06 03:55:37;;;;;;;11.02;7.15;;;;;;;;;;5044664;28;20188;-53
2022/03/06 03:58:03;;;;;;;10.00;6.53;;;;;;;;;;5046919;28;20394;-49
2022/03/06 04:00:29;;;;;;;8.38;5.50;;;;;;;;;;5046905;28;20033;-49
2022/03/06 04:02:55;;;;;;;9.50;6.38;;;;;;;;;;5047755;28;20032;-57
2022/03/06 04:05:21;;;;;;;10.43;6.75;;;;;;;;;;5047969;28;20060;-57
2022/03/06 04:07:48;;;;;;;10.80;6.47;;;;;;;;;;5051866;28;20025;-57
2022/03/06 04:10:14;;;;;;;8.60;6.13;;;;;;;;;;5051622;28;20052;-55
2022/03/06 04:12:39;;;;;;;10.63;6.78;;;;;;;;;;5051675;28;20077;-56
2022/03/06 04:15:06;;;;;;;11.13;6.75;;;;;;;;;;5051186;28;20021;-55
2022/03/06 04:17:32;;;;;;;11.00;6.82;;;;;;;;;;5051173;28;20060;-55
2022/03/06 04:19:58;;;;;;;8.80;6.43;;;;;;;;;;5051635;28;20423;-55
2022/03/06 04:22:24;;;;;;;10.55;6.40;;;;;;;;;;5051638;28;20036;-56
2022/03/06 04:24:50;;;;;;;8.18;5.90;;;;;;;;;;5051551;28;20419;-55
2022/03/06 04:27:16;;;;;;;9.70;6.20;;;;;;;;;;5051188;28;20095;-52
2022/03/06 04:29:43;;;;;;;9.57;5.78;;;;;;;;;;5050537;28;20447;-54
2022/03/06 04:32:09;;;;;;;10.38;6.43;;;;;;;;;;5051346;28;20340;-55
2022/03/06 04:34:36;;;;;;;9.68;5.93;;;;;;;;;;5051047;28;20060;-51
2022/03/06 04:37:02;;;;;;;9.30;5.90;;;;;;;;;;5051213;28;20178;-48
2022/03/06 04:39:28;;;;;;;9.63;5.55;;;;;;;;;;5051423;28;20037;-47
2022/03/06 04:41:54;;;;;;;8.23;5.90;;;;;;;;;;5050161;28;20025;-47
2022/03/06 04:44:20;;;;;;;10.00;5.82;;;;;;;;;;5050819;28;20033;-53
2022/03/06 04:46:46;;;;;;;11.52;6.47;;;;;;;;;;5046726;28;20086;-51
2022/03/06 04:49:13;;;;;;;14.48;7.05;;;;;;;;;;5044404;28;20137;-50
2022/03/06 04:51:39;;;;;;;14.27;9.68;;;;;;;;;;5050653;28;20037;-49
2022/03/06 04:54:05;;;;;;;21.98;9.95;;;;;;;;;;5050824;28;20055;-51
2022/03/06 04:56:32;;;;;;;15.65;11.25;;;;;;;;;;5050692;28;20052;-48
2022/03/06 04:58:58;;;;;;;16.13;11.60;;;;;;;;;;5050842;28;20071;-50
2022/03/06 05:01:24;;;;;;;15.32;11.27;;;;;;;;;;5048385;28;20047;-56
2022/03/06 05:03:50;;;;;;;18.27;11.35;;;;;;;;;;5050791;28;20803;-51
2022/03/06 05:06:16;;;;;;;16.20;10.77;;;;;;;;;;5043733;28;20086;-50
2022/03/06 05:08:42;;;;;;;18.17;12.40;;;;;;;;;;5050436;28;20029;-56
2022/03/06 05:11:08;;;;;;;15.45;11.40;;;;;;;;;;5050428;28;20040;-54
2022/03/06 05:13:34;;;;;;;18.92;12.02;;;;;;;;;;5048666;28;20096;-54
2022/03/06 05:16:00;;;;;;;15.98;11.50;;;;;;;;;;5042846;28;20104;-56
2022/03/06 05:18:27;;;;;;;15.68;11.00;;;;;;;;;;5046646;28;20996;-56
2022/03/06 05:20:53;;;;;;;15.50;11.13;;;;;;;;;;5046881;28;20029;-53
2022/03/06 05:23:20;;;;;;;16.10;12.45;;;;;;;;;;5049445;28;20549;-56
2022/03/06 05:25:47;;;;;;;19.48;11.82;;;;;;;;;;5039008;28;20033;-56
2022/03/06 05:28:13;;;;;;;15.90;11.32;;;;;;;;;;5043455;28;20108;-54
2022/03/06 05:30:39;;;;;;;16.95;10.85;;;;;;;;;;5041114;28;20048;-57
2022/03/06 05:33:05;;;;;;;16.95;11.32;;;;;;;;;;5042562;28;20079;-55
2022/03/06 05:35:31;;;;;;;14.70;11.27;;;;;;;;;;5039536;28;20112;-55
2022/03/06 05:37:57;;;;;;;15.60;11.05;;;;;;;;;;5043938;28;20105;-55
2022/03/06 05:40:23;;;;;;;14.32;10.77;;;;;;;;;;5043034;28;20025;-56
2022/03/06 05:42:49;;;;;;;15.88;10.52;;;;;;;;;;5041078;28;20025;-56
2022/03/06 05:45:15;;;;;;;17.13;11.35;;;;;;;;;;5040162;28;20147;-55
2022/03/06 05:47:42;;;;;;;18.10;11.52;;;;;;;;;;5041474;28;20029;-55
2022/03/06 05:50:08;;;;;;;20.05;11.73;;;;;;;;;;5041206;28;20041;-56
2022/03/06 05:52:35;;;;;;;15.80;10.57;;;;;;;;;;5041085;28;20057;-52
2022/03/06 05:55:01;;;;;;;14.80;10.25;;;;;;;;;;5049795;28;20741;-48
2022/03/06 05:57:27;;;;;;;19.17;8.95;;;;;;;;;;5049540;28;20465;-50
2022/03/06 05:59:53;;;;;;;15.93;10.52;;;;;;;;;;5049361;28;20040;-49
2022/03/06 06:02:22;;;;;;;16.48;9.70;;;;;;;;;;5033761;28;20053;-54
2022/03/06 06:04:48;;;;;;;15.43;9.13;;;;;;;;;;5049374;28;20028;-53
2022/03/06 06:07:14;;;;;;;17.40;9.85;;;;;;;;;;5049802;28;20090;-54
2022/03/06 06:09:40;;;;;;;19.15;8.63;;;;;;;;;;5048422;28;20064;-54
2022/03/06 06:12:07;;;;;;;23.88;9.00;;;;;;;;;;5049168;28;20021;-53
2022/03/06 06:14:33;;;;;;;18.65;9.38;;;;;;;;;;5049129;28;20451;-51
2022/03/06 06:16:59;;;;;;;18.35;9.10;;;;;;;;;;5049506;28;20028;-52
2022/03/06 06:19:25;;;;;;;16.20;8.45;;;;;;;;;;5049172;28;20439;-52
2022/03/06 06:21:51;;;;;;;17.13;9.15;;;;;;;;;;5045796;28;20033;-54
2022/03/06 06:24:17;;;;;;;15.10;7.93;;;;;;;;;;5045757;28;20605;-51
2022/03/06 06:26:45;;;;;;;13.85;7.93;;;;;;;;;;5047904;28;20099;-55
2022/03/06 06:29:12;;;;;;;17.38;7.85;;;;;;;;;;5048530;28;20124;-55
2022/03/06 06:31:39;;;;;;;16.63;8.25;;;;;;;;;;5048679;28;20479;-51
2022/03/06 06:34:05;;;;;;;16.75;7.80;;;;;;;;;;5048318;28;20021;-54
2022/03/06 06:36:31;;;;;;;15.80;7.00;;;;;;;;;;5048391;28;20131;-51
2022/03/06 06:38:57;;;;;;;10.50;6.45;;;;;;;;;;5047824;28;20104;-54
2022/03/06 06:41:23;;;;;;;12.18;7.22;;;;;;;;;;5038386;28;20028;-53
2022/03/06 06:43:49;;;;;;;17.60;8.18;;;;;;;;;;5037211;28;20746;-52
2022/03/06 06:46:15;;;;;;;13.50;7.07;;;;;;;;;;5043626;28;20044;-54
2022/03/06 06:48:41;;;;;;;11.35;6.35;;;;;;;;;;5036588;28;20029;-52
2022/03/06 06:51:09;;;;;;;10.55;6.72;;;;;;;;;;5041777;28;20767;-53
2022/03/06 06:53:36;;;;;;;11.70;6.43;;;;;;;;;;5036547;28;20503;-52
2022/03/06 06:56:02;;;;;;;11.05;6.05;;;;;;;;;;5043225;28;20021;-49
2022/03/06 06:58:28;;;;;;;10.88;6.38;;;;;;;;;;5039658;28;20033;-50
2022/03/06 07:00:54;;;;;;;10.77;6.00;;;;;;;;;;5040828;28;20033;-50
2022/03/06 07:03:20;;;;;;;10.90;6.57;;;;;;;;;;5037302;28;20095;-52
2022/03/06 07:05:47;;;;;;;10.68;6.03;;;;;;;;;;5043496;28;20061;-51
2022/03/06 07:08:13;;;;;;;11.52;5.80;;;;;;;;;;5037704;28;20033;-50
2022/03/06 07:10:39;;;;;;;10.18;5.57;;;;;;;;;;5040785;28;20558;-55
2022/03/06 07:13:05;;;;;;;10.00;5.13;;;;;;;;;;5037669;28;20036;-48
2022/03/06 07:15:32;;;;;;;9.05;5.70;;;;;;;;;;5040918;28;20021;-48
2022/03/06 07:18:01;;;;;;;10.30;5.50;;;;;;;;;;5038314;28;20021;-53
2022/03/06 07:20:28;;;;;;;7.93;5.50;;;;;;;;;;5039848;28;20403;-54
2022/03/06 07:22:54;;;;;;;11.57;5.57;;;;;;;;;;5038963;28;20086;-54
2022/03/06 07:25:20;;;;;;;8.43;5.15;;;;;;;;;;5030869;28;20112;-51
2022/03/06 07:27:46;;;;;;;12.23;5.43;;;;;;;;;;5047697;28;20124;-52
2022/03/06 07:30:13;;;;;;;8.88;5.30;;;;;;;;;;5048237;28;20075;-54
2022/03/06 07:32:43;;;;;;;11.95;5.70;;;;;;;;;;5047637;28;20029;-52
2022/03/06 07:35:09;;;;;;;9.80;4.85;;;;;;;;;;5048117;28;20025;-54
2022/03/06 07:37:35;;;;;;;8.23;5.22;;;;;;;;;;5046356;28;20103;-55
2022/03/06 07:40:01;;;;;;;10.88;5.43;;;;;;;;;;5034608;28;20031;-55
2022/03/06 07:42:27;;;;;;;8.48;5.03;;;;;;;;;;5033545;28;20457;-54
2022/03/06 07:44:53;;;;;;;9.93;4.80;;;;;;;;;;5037361;28;20153;-53
2022/03/06 07:47:19;;;;;;;12.65;4.90;;;;;;;;;;5044302;28;20024;-54
2022/03/06 07:49:45;;;;;;;7.65;4.72;;;;;;;;;;5038779;28;20038;-56
2022/03/06 07:52:11;;;;;;;12.02;5.45;;;;;;;;;;5042239;28;20814;-53
2022/03/06 07:54:37;;;;;;;10.95;4.95;;;;;;;;;;5039055;28;20032;-51
2022/03/06 07:57:03;;;;;;;8.45;4.80;;;;;;;;;;5038039;28;20132;-55
2022/03/06 07:59:29;;;;;;;8.77;5.47;;;;;;;;;;5038902;28;20017;-56
2022/03/06 08:01:55;;;;;;;10.43;4.47;;;;;;;;;;5037999;28;20053;-53
2022/03/06 08:04:21;;;;;;;16.65;5.28;;;;;;;;;;5034725;28;20475;-52
2022/03/06 08:06:48;;;;;;;12.45;4.72;;;;;;;;;;5037130;28;20046;-55
2022/03/06 08:09:15;;;;;;;12.38;7.50;;;;;;;;;;5038265;28;20036;-54
2022/03/06 08:11:42;;;;;;;14.45;8.25;;;;;;;;;;5035854;28;20037;-56
2022/03/06 08:14:08;;;;;;;13.32;8.43;;;;;;;;;;5041588;28;20129;-54
2022/03/06 08:16:34;;;;;;;13.98;8.57;;;;;;;;;;5038016;28;20029;-55
2022/03/06 08:19:00;;;;;;;13.77;8.45;;;;;;;;;;5039984;28;20114;-56
2022/03/06 08:21:27;;;;;;;17.35;8.57;;;;;;;;;;5041398;28;20465;-54
2022/03/06 08:23:53;;;;;;;12.57;7.50;;;;;;;;;;5042986;28;20105;-54
2022/03/06 08:26:19;;;;;;;17.20;7.45;;;;;;;;;;5038188;28;20067;-56
2022/03/06 08:28:45;;;;;;;12.30;6.97;;;;;;;;;;5042498;28;20105;-55
2022/03/06 08:31:11;;;;;;;13.73;7.20;;;;;;;;;;5034753;28;20753;-54
2022/03/06 08:33:37;;;;;;;15.88;7.72;;;;;;;;;;5037489;28;20037;-53
2022/03/06 08:36:04;;;;;;;12.38;6.95;;;;;;;;;;5037029;28;20071;-54
2022/03/06 08:38:30;;;;;;;15.50;6.88;;;;;;;;;;5038006;28;20028;-55
2022/03/06 08:40:56;;;;;;;10.90;6.60;;;;;;;;;;5035351;28;20021;-55
2022/03/06 08:43:22;;;;;;;13.65;7.20;;;;;;;;;;5039061;28;20029;-53
2022/03/06 08:45:48;;;;;;;13.60;6.75;;;;;;;;;;5035029;28;20550;-53
2022/03/06 08:48:15;;;;;;;10.70;7.10;;;;;;;;;;5036565;28;20107;-57
2022/03/06 08:50:41;;;;;;;12.95;6.85;;;;;;;;;;5038701;28;20044;-55
2022/03/06 08:53:07;;;;;;;11.05;6.40;;;;;;;;;;5040710;28;20033;-52
2022/03/06 08:55:33;;;;;;;12.27;6.53;;;;;;;;;;5038415;28;20041;-52
2022/03/06 08:57:59;;;;;;;10.88;6.18;;;;;;;;;;5039571;28;20104;-55
2022/03/06 09:00:25;;;;;;;13.35;6.18;;;;;;;;;;5042858;28;20030;-55
2022/03/06 09:02:51;;;;;;;11.88;6.35;;;;;;;;;;5041500;28;20056;-56
2022/03/06 09:05:20;;;;;;;10.50;5.22;;;;;;;;;;5040147;28;20065;-57
2022/03/06 09:07:46;;;;;;;14.10;5.22;;;;;;;;;;5037056;28;20029;-56
2022/03/06 09:10:12;;;;;;;12.40;5.72;;;;;;;;;;5041859;28;20036;-55
2022/03/06 09:12:39;;;;;;;11.88;4.90;;;;;;;;;;5040705;28;20120;-53
2022/03/06 09:15:06;;;;;;;13.65;4.93;;;;;;;;;;5039755;28;20037;-54
2022/03/06 09:17:32;;;;;;;12.77;4.80;;;;;;;;;;5041115;28;20669;-55
2022/03/06 09:19:58;;;;;;;11.27;4.78;;;;;;;;;;5041154;28;20049;-56
2022/03/06 09:22:24;;;;;;;9.90;4.50;;;;;;;;;;5040310;28;20908;-53
2022/03/06 09:24:50;;;;;;;9.77;4.15;;;;;;;;;;5042977;28;20112;-53
2022/03/06 09:27:16;;;;;;;9.73;3.90;;;;;;;;;;5041339;28;20024;-54
2022/03/06 09:29:44;;;;;;;9.93;4.53;;;;;;;;;;5039861;28;20076;-55
2022/03/06 09:32:10;;;;;;;8.68;4.38;;;;;;;;;;5041410;28;20052;-54
2022/03/06 09:34:37;;;;;;;8.27;4.63;;;;;;;;;;5039028;28;20064;-51
2022/03/06 09:37:03;;;;;;;7.40;3.63;;;;;;;;;;5041263;28;20029;-55
2022/03/06 09:39:29;;;;;;;15.02;4.28;;;;;;;;;;5038571;28;20063;-55
2022/03/06 09:41:56;;;;;;;13.35;4.35;;;;;;;;;;5043560;28;20066;-54
2022/03/06 09:44:23;;;;;;;9.98;3.88;;;;;;;;;;5037961;28;20025;-56
2022/03/06 09:46:52;;;;;;;14.20;3.97;;;;;;;;;;5040948;28;20132;-54
2022/03/06 09:49:18;;;;;;;9.43;4.07;;;;;;;;;;5038846;28;20044;-51
2022/03/06 09:51:45;;;;;;;9.07;3.67;;;;;;;;;;5040777;28;20095;-51
2022/03/06 09:54:12;;;;;;;9.52;3.50;;;;;;;;;;5040729;28;20126;-52
2022/03/06 09:56:38;;;;;;;13.65;3.90;;;;;;;;;;5039968;28;20030;-54
2022/03/06 09:59:04;;;;;;;14.98;3.47;;;;;;;;;;5039603;28;20040;-53
2022/03/06 10:01:31;;;;;;;8.02;3.38;;;;;;;;;;5043976;28;20487;-54
2022/03/06 10:03:57;;;;;;;11.35;3.53;;;;;;;;;;5036845;28;20048;-56
2022/03/06 10:06:23;;;;;;;8.57;2.92;;;;;;;;;;5044264;28;20503;-56
2022/03/06 10:09:11;;;;;;;10.73;3.15;;;;;;;;;;5045717;28;20029;-57
2022/03/06 10:11:38;;;;;;;10.35;3.45;;;;;;;;;;5041065;28;20143;-55
2022/03/06 10:14:05;;;;;;;9.63;2.80;;;;;;;;;;5034145;28;20129;-57
2022/03/06 10:16:31;;;;;;;10.55;2.65;;;;;;;;;;5039933;28;20025;-56
2022/03/06 10:18:58;;;;;;;6.53;2.60;;;;;;;;;;5046975;28;20864;-57
2022/03/06 10:21:25;;;;;;;9.43;2.97;;;;;;;;;;5044017;28;20108;-55
2022/03/06 10:23:59;;;;;;;6.38;2.90;;;;;;;;;;5044819;28;20033;-56
2022/03/06 10:26:26;;;;;;;7.68;2.42;;;;;;;;;;5042652;28;20025;-54
2022/03/06 10:28:58;;;;;;;7.20;2.25;;;;;;;;;;5046394;28;20561;-50
2022/03/06 10:31:26;;;;;;;11.45;3.15;;;;;;;;;;5043819;28;20036;-56
2022/03/06 10:34:09;;;;;;;11.00;2.72;;;;;;;;;;5048103;28;20025;-56
2022/03/06 10:36:36;;;;;;;12.90;2.97;;;;;;;;;;5044896;28;20503;-52
2022/03/06 10:39:04;;;;;;;7.03;2.40;;;;;;;;;;5044757;28;20036;-57
2022/03/06 10:41:38;;;;;;;9.90;2.38;;;;;;;;;;5041538;28;20456;-56
2022/03/06 10:44:05;;;;;;;8.40;2.95;;;;;;;;;;5045823;28;20029;-56
2022/03/06 10:46:33;;;;;;;6.03;2.15;;;;;;;;;;5038751;28;20137;-55
2022/03/06 10:49:01;;;;;;;7.15;2.90;;;;;;;;;;5045509;28;20094;-55
2022/03/06 10:51:27;;;;;;;5.38;1.92;;;;;;;;;;5039769;28;20032;-56
2022/03/06 10:53:54;;;;;;;11.65;2.70;;;;;;;;;;5044159;28;20115;-51
2022/03/06 10:56:22;;;;;;;7.40;2.38;;;;;;;;;;5044487;28;20029;-55
2022/03/06 10:58:48;;;;;;;9.43;2.83;;;;;;;;;;5048483;28;20026;-50
2022/03/06 11:01:14;;;;;;;11.13;2.47;;;;;;;;;;5036392;28;20387;-56
2022/03/06 11:03:41;;;;;;;8.90;2.38;;;;;;;;;;5045063;28;20112;-52
2022/03/06 11:06:09;;;;;;;7.70;2.40;;;;;;;;;;5042831;28;20049;-51
2022/03/06 11:08:35;;;;;;;10.98;2.50;;;;;;;;;;5047190;28;20104;-56
2022/03/06 11:11:04;;;;;;;8.35;2.55;;;;;;;;;;5051353;28;20406;-56
2022/03/06 11:13:30;;;;;;;7.73;2.63;;;;;;;;;;5041517;28;20044;-55
2022/03/06 11:15:57;;;;;;;5.85;2.30;;;;;;;;;;5039366;28;20094;-54
2022/03/06 11:18:24;;;;;;;6.18;2.05;;;;;;;;;;5045549;28;20111;-54
2022/03/06 11:20:51;;;;;;;6.25;2.25;;;;;;;;;;5046418;28;20122;-54
2022/03/06 11:23:29;;;;;;;10.88;2.67;;;;;;;;;;5045640;28;20842;-56
2022/03/06 11:26:07;;;;;;;10.65;2.30;;;;;;;;;;5041003;28;20121;-58
2022/03/06 11:28:50;;;;;;;8.20;2.47;;;;;;;;;;5045266;28;20040;-56
2022/03/06 11:31:16;;;;;;;8.02;2.55;;;;;;;;;;5043379;28;20035;-56
2022/03/06 11:33:55;;;;;;;8.23;2.10;;;;;;;;;;5037699;28;20029;-51
2022/03/06 11:36:23;;;;;;;10.17;2.30;;;;;;;;;;5043441;28;20406;-55
2022/03/06 11:38:51;;;;;;;11.30;2.15;;;;;;;;;;5038582;28;20143;-53
2022/03/06 11:41:17;;;;;;;5.65;1.77;;;;;;;;;;5042250;28;20033;-54
2022/03/06 11:43:48;;;;;;;8.88;1.90;;;;;;;;;;5035318;28;20363;-52
2022/03/06 11:46:25;;;;;;;8.13;1.75;;;;;;;;;;5038664;28;20037;-56
2022/03/06 11:48:51;;;;;;;7.53;2.50;;;;;;;;;;5035667;28;20034;-52
2022/03/06 11:51:20;;;;;;;7.60;2.38;;;;;;;;;;5041944;28;20029;-51
2022/03/06 11:53:49;;;;;;;10.20;2.40;;;;;;;;;;5033939;28;20470;-51
2022/03/06 11:56:33;;;;;;;7.93;2.28;;;;;;;;;;5046254;28;20387;-50
2022/03/06 11:59:10;;;;;;;6.78;1.90;;;;;;;;;;5040322;28;20117;-49
2022/03/06 12:01:43;;;;;;;5.80;1.83;;;;;;;;;;5043591;28;20049;-55
2022/03/06 12:04:11;;;;;;;8.15;2.05;;;;;;;;;;5035496;28;20386;-54
2022/03/06 12:06:44;;;;;;;6.90;2.42;;;;;;;;;;5039626;28;20061;-55
2022/03/06 12:09:18;;;;;;;4.85;1.70;;;;;;;;;;5037517;28;20041;-56
2022/03/06 12:11:45;;;;;;;5.15;1.90;;;;;;;;;;5038553;28;20026;-55
2022/03/06 12:14:32;;;;;;;4.30;2.10;;;;;;;;;;5038078;28;20056;-56
2022/03/06 12:17:06;;;;;;;6.55;2.08;;;;;;;;;;5041219;28;20091;-53
2022/03/06 12:19:55;;;;;;;5.75;1.60;;;;;;;;;;5035342;28;20107;-54
2022/03/06 12:22:22;;;;;;;5.90;1.52;;;;;;;;;;5042113;28;20025;-55
2022/03/06 12:25:11;;;;;;;5.25;2.10;;;;;;;;;;5036409;28;20057;-55
2022/03/06 12:27:41;;;;;;;4.05;1.50;;;;;;;;;;5049251;28;20078;-54
2022/03/06 12:30:09;;;;;;;4.13;1.60;;;;;;;;;;5044512;28;20040;-52
2022/03/06 12:32:37;;;;;;;6.13;2.40;;;;;;;;;;5049754;28;20033;-51
2022/03/06 12:35:09;;;;;;;29.58;13.65;;;;;;;;;;5043960;28;20040;-55
2022/03/06 12:37:35;;;;;;;35.72;16.58;;;;;;;;;;5045234;28;20029;-56
2022/03/06 12:40:03;;;;;;;32.53;18.13;;;;;;;;;;5048121;28;20031;-57
2022/03/06 12:42:31;;;;;;;29.67;15.73;;;;;;;;;;5042419;28;20113;-56
2022/03/06 12:44:58;;;;;;;33.75;15.25;;;;;;;;;;5043673;28;20029;-55
2022/03/06 12:47:26;;;;;;;36.53;15.20;;;;;;;;;;5040833;28;20029;-51
2022/03/06 12:49:53;;;;;;;35.40;15.85;;;;;;;;;;5044268;28;20076;-54
2022/03/06 12:52:20;;;;;;;27.50;15.00;;;;;;;;;;5043606;28;20021;-55
2022/03/06 12:54:46;;;;;;;44.63;15.52;;;;;;;;;;5039465;28;20120;-56
2022/03/06 12:57:12;;;;;;;27.77;13.70;;;;;;;;;;5042970;28;20526;-53
2022/03/06 12:59:41;;;;;;;26.67;15.13;;;;;;;;;;5036949;28;20390;-54
2022/03/06 13:02:08;;;;;;;33.05;15.25;;;;;;;;;;5041446;28;20137;-57
2022/03/06 13:04:34;;;;;;;31.70;12.95;;;;;;;;;;5041831;28;20756;-56
2022/03/06 13:07:00;;;;;;;21.67;11.15;;;;;;;;;;5040880;28;20028;-54
2022/03/06 13:09:29;;;;;;;20.90;10.38;;;;;;;;;;5040847;28;20040;-56
2022/03/06 13:11:55;;;;;;;22.75;10.40;;;;;;;;;;5037943;28;20037;-55
2022/03/06 13:14:31;;;;;;;22.63;11.10;;;;;;;;;;5043037;28;20128;-55
2022/03/06 13:17:04;;;;;;;21.33;9.02;;;;;;;;;;5037812;28;20116;-57
2022/03/06 13:19:56;;;;;;;18.77;8.65;;;;;;;;;;5039208;28;20037;-53
2022/03/06 13:22:24;;;;;;;18.48;8.80;;;;;;;;;;5039734;28;20112;-54
2022/03/06 13:24:52;;;;;;;18.80;9.18;;;;;;;;;;5041887;28;20086;-54
2022/03/06 13:27:25;;;;;;;19.88;8.40;;;;;;;;;;5040816;28;20433;-53
2022/03/06 13:30:14;;;;;;;12.93;7.28;;;;;;;;;;5041262;28;20476;-54
2022/03/06 13:32:50;;;;;;;16.00;7.97;;;;;;;;;;5038972;28;20032;-56
2022/03/06 13:35:30;;;;;;;13.95;6.55;;;;;;;;;;5039743;28;20036;-55
2022/03/06 13:38:00;;;;;;;11.95;6.40;;;;;;;;;;5039969;28;20024;-53
2022/03/06 13:40:28;;;;;;;16.95;7.00;;;;;;;;;;5040408;28;20104;-55
2022/03/06 13:42:56;;;;;;;12.90;6.47;;;;;;;;;;5039424;28;20033;-53
2022/03/06 13:45:22;;;;;;;14.93;6.70;;;;;;;;;;5043274;28;20056;-55
2022/03/06 13:47:49;;;;;;;16.55;6.75;;;;;;;;;;5037582;28;20037;-56
2022/03/06 13:50:19;;;;;;;18.60;7.50;;;;;;;;;;5042953;28;20474;-52
2022/03/06 13:52:46;;;;;;;8.80;5.88;;;;;;;;;;5039200;28;20037;-51
2022/03/06 13:55:12;;;;;;;9.02;5.95;;;;;;;;;;5043551;28;20021;-52
2022/03/06 13:57:39;;;;;;;8.00;5.55;;;;;;;;;;5037944;28;20033;-54
2022/03/06 14:00:24;;;;;;;9.75;5.88;;;;;;;;;;5042166;28;20061;-54
2022/03/06 14:02:59;;;;;;;7.85;4.85;;;;;;;;;;5036463;28;20033;-51
2022/03/06 14:05:29;;;;;;;9.20;5.18;;;;;;;;;;5041787;28;20045;-54
2022/03/06 14:07:55;;;;;;;7.53;5.25;;;;;;;;;;5038044;28;20077;-56
2022/03/06 14:10:38;;;;;;;8.95;5.72;;;;;;;;;;5042130;28;20037;-57
2022/03/06 14:13:04;;;;;;;9.63;5.60;;;;;;;;;;5038223;28;20108;-55
2022/03/06 14:15:33;;;;;;;10.93;5.63;;;;;;;;;;5034939;28;20132;-56
2022/03/06 14:17:59;;;;;;;7.43;4.50;;;;;;;;;;5038076;28;20032;-54
2022/03/06 14:20:25;;;;;;;14.15;4.97;;;;;;;;;;5040797;28;20029;-54
2022/03/06 14:22:51;;;;;;;9.55;4.78;;;;;;;;;;5039130;28;20435;-53
2022/03/06 14:25:17;;;;;;;5.88;4.03;;;;;;;;;;5041332;28;20032;-53
2022/03/06 14:27:43;;;;;;;9.80;4.43;;;;;;;;;;5048647;28;20052;-57
2022/03/06 14:30:09;;;;;;;6.78;3.67;;;;;;;;;;5048894;28;21348;-56
2022/03/06 14:32:35;;;;;;;7.05;3.45;;;;;;;;;;5045002;28;20136;-57